createdAt,value
2023-05-14T00:02:11.256Z,1.80
2023-05-14T00:04:40.844Z,1.70
2023-05-14T00:07:15.138Z,2.13
2023-05-14T00:09:44.607Z,1.80
2023-05-14T00:12:14.146Z,1.77
2023-05-14T00:14:43.568Z,2.20
2023-05-14T00:17:14.882Z,2.08
2023-05-14T00:19:44.143Z,2.30
2023-05-14T00:22:14.896Z,2.03
2023-05-14T00:24:49.748Z,1.53
2023-05-14T00:27:24.130Z,1.70
2023-05-14T00:29:53.398Z,1.50
2023-05-14T00:32:31.273Z,1.63
2023-05-14T00:35:00.974Z,1.63
2023-05-14T00:37:33.502Z,2.47
2023-05-14T00:40:03.396Z,1.90
2023-05-14T00:42:33.847Z,1.53
2023-05-14T00:45:03.384Z,2.00
2023-05-14T00:47:36.962Z,2.70
2023-05-14T00:50:07.489Z,1.40
2023-05-14T00:52:43.649Z,1.90
2023-05-14T00:55:16.118Z,1.30
2023-05-14T00:57:45.570Z,1.50
2023-05-14T01:00:16.350Z,1.88
2023-05-14T01:02:53.002Z,2.07
2023-05-14T01:05:38.255Z,1.70
2023-05-14T01:08:20.582Z,1.80
2023-05-14T01:10:54.959Z,2.03
2023-05-14T01:13:35.964Z,1.80
2023-05-14T01:16:06.617Z,1.83
2023-05-14T01:18:38.354Z,1.48
2023-05-14T01:23:38.786Z,1.70
2023-05-14T01:26:13.203Z,1.92
2023-05-14T01:28:47.901Z,2.38
2023-05-14T01:31:27.528Z,1.90
2023-05-14T01:34:01.163Z,2.20
2023-05-14T01:36:32.603Z,1.88
2023-05-14T01:39:09.865Z,1.77
2023-05-14T01:44:16.649Z,1.95
2023-05-14T01:46:46.063Z,1.58
2023-05-14T01:49:15.849Z,1.67
2023-05-14T01:51:45.134Z,1.58
2023-05-14T01:54:16.488Z,1.08
2023-05-14T01:56:45.779Z,1.73
2023-05-14T01:59:20.590Z,1.77
2023-05-14T02:01:50.238Z,1.25
2023-05-14T02:04:20.492Z,1.77
2023-05-14T02:06:50.122Z,1.70
2023-05-14T02:09:26.617Z,1.80
2023-05-14T02:11:55.885Z,2.08
2023-05-14T02:14:25.349Z,1.33
2023-05-14T02:16:54.862Z,1.80
2023-05-14T02:19:24.471Z,1.70
2023-05-14T02:22:11.371Z,1.55
2023-05-14T02:24:46.585Z,1.52
2023-05-14T02:27:15.862Z,1.40
2023-05-14T02:29:45.175Z,1.55
2023-05-14T02:32:14.573Z,1.60
2023-05-14T02:34:48.948Z,1.92
2023-05-14T02:37:18.402Z,1.38
2023-05-14T02:39:49.687Z,1.50
2023-05-14T02:42:19.007Z,1.30
2023-05-14T02:44:49.793Z,1.33
2023-05-14T02:47:18.970Z,1.20
2023-05-14T02:49:48.248Z,1.38
2023-05-14T02:52:24.529Z,1.50
2023-05-14T02:54:55.710Z,1.58
2023-05-14T02:57:25.045Z,1.67
2023-05-14T03:00:05.729Z,1.63
2023-05-14T03:02:39.088Z,1.80
2023-05-14T03:07:38.443Z,1.58
2023-05-14T03:10:16.150Z,1.60
2023-05-14T03:12:45.395Z,1.48
2023-05-14T03:15:14.951Z,1.52
2023-05-14T03:17:49.466Z,1.90
2023-05-14T03:20:19.176Z,1.90
2023-05-14T03:22:54.179Z,1.90
2023-05-14T03:25:25.596Z,1.63
2023-05-14T03:27:54.970Z,1.77
2023-05-14T03:30:24.646Z,1.88
2023-05-14T03:33:01.634Z,1.40
2023-05-14T03:35:31.176Z,1.70
2023-05-14T03:38:00.541Z,1.85
2023-05-14T03:40:37.022Z,1.90
2023-05-14T03:43:06.418Z,1.88
2023-05-14T03:45:35.795Z,1.80
2023-05-14T03:48:05.704Z,1.45
2023-05-14T03:50:35.742Z,1.88
2023-05-14T03:53:10.207Z,1.30
2023-05-14T03:55:41.525Z,1.80
2023-05-14T03:58:14.426Z,1.90
2023-05-14T04:00:44.536Z,1.77
2023-05-14T04:03:19.510Z,1.13
2023-05-14T04:05:49.549Z,1.80
2023-05-14T04:08:24.654Z,1.70
2023-05-14T04:10:56.123Z,2.10
2023-05-14T04:13:26.072Z,1.45
2023-05-14T04:15:56.693Z,1.80
2023-05-14T04:18:27.318Z,1.10
2023-05-14T04:21:13.287Z,1.50
2023-05-14T04:23:42.733Z,1.67
2023-05-14T04:26:14.073Z,2.00
2023-05-14T04:28:49.687Z,1.75
2023-05-14T04:31:19.055Z,1.92
2023-05-14T04:33:50.009Z,1.85
2023-05-14T04:36:19.273Z,2.00
2023-05-14T04:38:48.572Z,1.55
2023-05-14T04:41:25.472Z,1.65
2023-05-14T04:46:30.336Z,2.05
2023-05-14T04:48:59.668Z,1.75
2023-05-14T04:54:14.600Z,1.50
2023-05-14T04:56:52.133Z,1.90
2023-05-14T04:59:21.673Z,1.80
2023-05-14T05:01:51.352Z,1.23
2023-05-14T05:07:29.583Z,1.35
2023-05-14T05:10:00.249Z,1.77
2023-05-14T05:12:46.535Z,1.98
2023-05-14T05:15:36.007Z,1.65
2023-05-14T05:18:06.088Z,1.30
2023-05-14T05:20:36.637Z,1.42
2023-05-14T05:23:06.182Z,2.05
2023-05-14T05:25:35.989Z,0.82
2023-05-14T05:28:13.793Z,1.60
2023-05-14T05:30:48.383Z,1.58
2023-05-14T05:33:17.964Z,1.50
2023-05-14T05:35:47.952Z,1.80
2023-05-14T05:38:17.950Z,1.40
2023-05-14T05:40:47.633Z,1.63
2023-05-14T05:43:19.387Z,1.65
2023-05-14T05:48:28.521Z,1.50
2023-05-14T05:50:58.274Z,1.58
2023-05-14T05:53:27.828Z,1.23
2023-05-14T05:56:02.327Z,1.10
2023-05-14T05:58:33.615Z,1.10
2023-05-14T06:01:17.922Z,0.82
2023-05-14T06:03:48.721Z,1.10
2023-05-14T06:06:19.081Z,0.90
2023-05-14T06:08:48.513Z,1.00
2023-05-14T06:11:18.776Z,0.88
2023-05-14T06:13:55.419Z,0.95
2023-05-14T06:16:25.001Z,1.20
2023-05-14T06:18:55.635Z,1.40
2023-05-14T06:21:25.044Z,1.17
2023-05-14T06:23:54.672Z,1.08
2023-05-14T06:26:29.146Z,1.20
2023-05-14T06:29:00.297Z,1.40
2023-05-14T06:31:29.945Z,1.00
2023-05-14T06:33:59.276Z,1.00
2023-05-14T06:36:34.883Z,1.60
2023-05-14T06:39:04.470Z,1.25
2023-05-14T06:41:34.284Z,1.15
2023-05-14T06:44:05.768Z,1.20
2023-05-14T06:46:35.356Z,1.08
2023-05-14T06:49:04.944Z,1.35
2023-05-14T06:51:40.512Z,1.08
2023-05-14T06:54:09.832Z,0.80
2023-05-14T06:56:39.117Z,0.77
2023-05-14T06:59:16.799Z,1.38
2023-05-14T07:01:46.134Z,0.82
2023-05-14T07:04:15.506Z,0.70
2023-05-14T07:06:44.812Z,0.95
2023-05-14T07:09:24.439Z,0.93
2023-05-14T07:11:54.004Z,0.68
2023-05-14T07:14:25.439Z,1.00
2023-05-14T07:16:55.333Z,0.88
2023-05-14T07:22:00.866Z,0.80
2023-05-14T07:24:30.294Z,0.82
2023-05-14T07:27:04.824Z,0.80
2023-05-14T07:29:41.484Z,0.80
2023-05-14T07:32:11.733Z,0.77
2023-05-14T07:34:42.135Z,1.50
2023-05-14T07:37:11.816Z,0.65
2023-05-14T07:39:41.400Z,0.90
2023-05-14T07:42:11.712Z,0.80
2023-05-14T07:44:46.907Z,0.85
2023-05-14T07:49:45.304Z,0.90
2023-05-14T07:54:50.752Z,0.90
2023-05-14T07:57:20.451Z,0.90
2023-05-14T07:59:52.042Z,1.00
2023-05-14T08:04:56.441Z,0.77
2023-05-14T08:07:27.491Z,0.93
2023-05-14T08:10:01.932Z,1.00
2023-05-14T08:12:34.724Z,0.90
2023-05-14T08:15:07.663Z,1.40
2023-05-14T08:17:37.327Z,1.05
2023-05-14T08:20:08.770Z,0.90
2023-05-14T08:22:38.215Z,1.10
2023-05-14T08:25:08.602Z,0.60
2023-05-14T08:27:37.965Z,0.70
2023-05-14T08:30:10.327Z,2.10
2023-05-14T08:32:40.159Z,1.20
2023-05-14T08:35:10.620Z,0.73
2023-05-14T08:37:51.978Z,1.10
2023-05-14T08:40:22.066Z,1.00
2023-05-14T08:42:53.195Z,1.20
2023-05-14T08:45:30.512Z,1.10
2023-05-14T08:48:15.300Z,0.90
2023-05-14T08:50:45.578Z,1.20
2023-05-14T08:53:15.009Z,1.42
2023-05-14T08:55:52.820Z,1.20
2023-05-14T08:58:37.257Z,0.65
2023-05-14T09:01:08.805Z,0.85
2023-05-14T09:03:39.023Z,1.20
2023-05-14T09:06:09.632Z,1.00
2023-05-14T09:08:39.250Z,1.33
2023-05-14T09:11:09.076Z,0.85
2023-05-14T09:13:40.731Z,0.68
2023-05-14T09:18:47.883Z,1.27
2023-05-14T09:21:17.937Z,1.15
2023-05-14T09:24:01.915Z,1.00
2023-05-14T09:26:34.344Z,1.10
2023-05-14T09:29:08.806Z,0.88
2023-05-14T09:31:41.160Z,0.80
2023-05-14T09:34:10.762Z,0.90
2023-05-14T09:36:40.286Z,1.05
2023-05-14T09:39:15.868Z,1.20
2023-05-14T09:41:45.456Z,1.02
2023-05-14T09:44:14.819Z,1.10
2023-05-14T09:46:51.691Z,0.93
2023-05-14T09:49:21.632Z,1.17
2023-05-14T09:51:52.118Z,1.13
2023-05-14T09:54:21.614Z,1.20
2023-05-14T09:56:51.010Z,1.10
2023-05-14T09:59:26.912Z,0.90
2023-05-14T10:02:00.071Z,1.13
2023-05-14T10:04:29.867Z,1.10
2023-05-14T10:06:59.504Z,1.20
2023-05-14T10:09:33.900Z,1.10
2023-05-14T10:12:03.729Z,0.55
2023-05-14T10:14:38.350Z,0.98
2023-05-14T10:17:17.911Z,0.75
2023-05-14T10:19:52.673Z,1.00
2023-05-14T10:22:26.519Z,2.70
2023-05-14T10:24:57.706Z,1.92
2023-05-14T10:27:27.774Z,0.80
2023-05-14T10:29:57.812Z,0.60
2023-05-14T10:32:37.677Z,0.60
2023-05-14T10:35:20.000Z,0.90
2023-05-14T10:37:49.441Z,0.90
2023-05-14T10:40:19.691Z,0.85
2023-05-14T10:42:49.339Z,0.88
2023-05-14T10:45:19.023Z,1.20
2023-05-14T10:47:51.079Z,1.10
2023-05-14T10:50:20.674Z,0.90
2023-05-14T10:52:50.975Z,1.27
2023-05-14T10:57:56.407Z,0.80
2023-05-14T11:00:34.916Z,1.15
2023-05-14T11:03:09.302Z,1.00
2023-05-14T11:05:40.537Z,0.90
2023-05-14T11:08:11.094Z,1.00
2023-05-14T11:10:42.653Z,1.17
2023-05-14T11:15:46.811Z,0.88
2023-05-14T11:18:28.612Z,0.73
2023-05-14T11:21:01.503Z,0.73
2023-05-14T11:23:31.568Z,1.05
2023-05-14T11:26:01.277Z,0.90
2023-05-14T11:28:31.620Z,1.00
2023-05-14T11:31:01.087Z,1.10
2023-05-14T11:33:33.578Z,1.20
2023-05-14T11:36:03.304Z,1.35
2023-05-14T11:38:51.872Z,0.93
2023-05-14T11:41:27.837Z,1.00
2023-05-14T11:43:57.337Z,1.20
2023-05-14T11:46:28.216Z,1.50
2023-05-14T11:48:59.581Z,1.30
2023-05-14T11:51:28.927Z,0.98
2023-05-14T11:53:58.612Z,1.13
2023-05-14T11:56:27.921Z,0.90
2023-05-14T11:59:13.514Z,0.90
2023-05-14T12:01:50.082Z,1.48
2023-05-14T12:04:22.859Z,0.85
2023-05-14T12:07:13.344Z,1.13
2023-05-14T12:12:15.078Z,1.25
2023-05-14T12:14:45.161Z,1.05
2023-05-14T12:17:16.358Z,1.10
2023-05-14T12:19:50.542Z,0.80
2023-05-14T12:22:25.794Z,1.27
2023-05-14T12:24:56.327Z,0.90
2023-05-14T12:32:41.705Z,0.73
2023-05-14T12:35:13.198Z,0.85
2023-05-14T12:40:13.285Z,0.77
2023-05-14T12:42:42.924Z,1.20
2023-05-14T12:51:30.880Z,1.35
2023-05-14T12:54:06.882Z,1.40
2023-05-14T12:56:37.511Z,1.35
2023-05-14T12:59:07.104Z,0.87
2023-05-14T13:01:37.742Z,1.80
2023-05-14T13:04:07.724Z,1.03
2023-05-14T13:06:39.033Z,1.08
2023-05-14T13:11:50.787Z,1.15
2023-05-14T13:14:20.356Z,1.50
2023-05-14T13:16:49.935Z,1.60
2023-05-14T13:19:19.289Z,2.45
2023-05-14T13:21:50.613Z,2.10
2023-05-14T13:24:19.975Z,1.70
2023-05-14T13:26:49.303Z,2.28
2023-05-14T13:29:23.659Z,1.30
2023-05-14T13:31:53.109Z,1.40
2023-05-14T13:34:22.485Z,1.40
2023-05-14T13:36:59.142Z,0.98
2023-05-14T13:39:28.649Z,1.52
2023-05-14T13:41:58.522Z,1.30
2023-05-14T13:44:33.205Z,1.40
2023-05-14T13:47:02.533Z,1.08
2023-05-14T13:49:32.088Z,1.20
2023-05-14T13:52:03.470Z,1.40
2023-05-14T13:54:32.951Z,1.65
2023-05-14T13:57:02.193Z,1.30
2023-05-14T14:02:07.485Z,1.30
2023-05-14T14:04:36.911Z,2.30
2023-05-14T14:07:13.271Z,1.50
2023-05-14T14:09:43.170Z,1.30
2023-05-14T14:12:12.681Z,1.35
2023-05-14T14:14:42.196Z,0.75
2023-05-14T14:17:11.557Z,1.48
2023-05-14T14:19:52.738Z,1.15
2023-05-14T14:22:27.171Z,1.45
2023-05-14T14:24:58.541Z,1.60
2023-05-14T14:27:35.721Z,0.90
2023-05-14T14:30:05.194Z,1.50
2023-05-14T14:32:35.425Z,1.95
2023-05-14T14:35:04.719Z,2.53
2023-05-14T14:37:41.612Z,2.03
2023-05-14T14:42:40.636Z,2.10
2023-05-14T14:45:11.224Z,2.20
2023-05-14T14:47:40.862Z,1.50
2023-05-14T14:50:12.173Z,1.67
2023-05-14T14:52:45.906Z,1.75
2023-05-14T14:55:25.561Z,2.42
2023-05-14T14:57:55.018Z,1.88
2023-05-14T15:00:24.459Z,1.10
2023-05-14T15:05:28.956Z,1.40
2023-05-14T15:08:05.292Z,1.70
2023-05-14T15:10:37.455Z,1.60
2023-05-14T15:13:08.270Z,2.15
2023-05-14T15:15:42.825Z,2.00
2023-05-14T15:18:12.642Z,1.50
2023-05-14T15:20:42.250Z,1.63
2023-05-14T15:23:13.543Z,1.30
2023-05-14T15:25:42.972Z,1.95
2023-05-14T15:28:12.354Z,1.63
2023-05-14T15:30:41.741Z,1.80
2023-05-14T15:33:18.714Z,1.38
2023-05-14T15:35:48.050Z,1.45
2023-05-14T15:38:19.920Z,1.05
2023-05-14T15:40:50.632Z,1.60
2023-05-14T15:43:19.948Z,1.67
2023-05-14T15:45:50.409Z,2.17
2023-05-14T15:48:19.699Z,2.78
2023-05-14T15:50:53.015Z,1.40
2023-05-14T15:53:25.373Z,0.80
2023-05-14T15:55:59.920Z,1.70
2023-05-14T15:58:29.355Z,1.00
2023-05-14T16:00:58.787Z,1.77
2023-05-14T16:03:28.389Z,2.63
2023-05-14T16:06:00.853Z,2.20
2023-05-14T16:08:32.391Z,2.35
2023-05-14T16:11:02.026Z,1.52
2023-05-14T16:13:31.408Z,1.73
2023-05-14T16:19:01.843Z,2.47
2023-05-14T16:21:31.699Z,2.10
2023-05-14T16:24:03.113Z,1.75
2023-05-14T16:26:32.838Z,2.28
2023-05-14T16:29:02.341Z,1.80
2023-05-14T16:31:31.905Z,1.55
2023-05-14T16:36:51.805Z,1.75
2023-05-14T16:39:28.447Z,2.38
2023-05-14T16:42:09.324Z,2.13
2023-05-14T16:44:38.749Z,1.90
2023-05-14T16:47:08.531Z,1.75
2023-05-14T16:49:37.844Z,2.05
2023-05-14T16:52:13.588Z,1.98
2023-05-14T16:54:59.835Z,2.00
2023-05-14T16:57:49.582Z,1.88
2023-05-14T17:00:19.864Z,2.65
2023-05-14T17:02:54.403Z,1.85
2023-05-14T17:05:24.270Z,1.98
2023-05-14T17:08:13.793Z,1.48
2023-05-14T17:11:31.712Z,2.13
2023-05-14T17:14:19.468Z,2.20
2023-05-14T17:17:03.948Z,2.85
2023-05-14T17:19:33.337Z,1.55
2023-05-14T17:22:05.404Z,2.08
2023-05-14T17:24:35.151Z,1.90
2023-05-14T17:27:07.089Z,2.40
2023-05-14T17:29:49.372Z,1.65
2023-05-14T17:32:18.890Z,2.60
2023-05-14T17:34:48.494Z,1.40
2023-05-14T17:37:23.008Z,1.50
2023-05-14T17:39:52.729Z,1.13
2023-05-14T17:42:24.165Z,1.42
2023-05-14T17:44:53.534Z,1.42
2023-05-14T17:47:23.346Z,1.90
2023-05-14T17:49:57.858Z,1.40
2023-05-14T17:52:27.282Z,1.05
2023-05-14T17:54:56.896Z,1.52
2023-05-14T17:57:29.331Z,1.58
2023-05-14T18:00:18.034Z,1.70
2023-05-14T18:02:48.355Z,1.33
2023-05-14T18:05:20.006Z,1.70
2023-05-14T18:08:05.028Z,1.60
2023-05-14T18:10:34.608Z,1.88
2023-05-14T18:13:24.764Z,1.80
2023-05-14T18:15:56.211Z,1.75
2023-05-14T18:18:47.684Z,2.00
2023-05-14T18:21:30.135Z,2.28
2023-05-14T18:24:26.970Z,2.00
2023-05-14T18:26:56.922Z,2.28
2023-05-14T18:29:28.176Z,2.50
2023-05-14T18:31:57.736Z,2.28
2023-05-14T18:34:32.501Z,2.92
2023-05-14T18:37:02.009Z,2.08
2023-05-14T18:39:31.609Z,2.70
2023-05-14T18:42:01.317Z,2.40
2023-05-14T18:44:32.736Z,2.85
2023-05-14T18:47:02.231Z,2.45
2023-05-14T18:49:31.460Z,1.92
2023-05-14T18:52:01.028Z,2.42
2023-05-14T18:54:30.825Z,2.30
2023-05-14T18:57:37.280Z,2.78
2023-05-14T19:00:10.619Z,3.15
2023-05-14T19:05:20.135Z,1.90
2023-05-14T19:07:49.866Z,2.17
2023-05-14T19:10:19.611Z,2.20
2023-05-14T19:13:03.093Z,2.13
2023-05-14T19:15:34.590Z,2.47
2023-05-14T19:18:04.343Z,3.25
2023-05-14T19:20:33.922Z,3.10
2023-05-14T19:23:09.272Z,2.20
2023-05-14T19:25:39.097Z,2.65
2023-05-14T19:28:08.645Z,2.80
2023-05-14T19:30:39.981Z,2.05
2023-05-14T19:33:14.485Z,1.95
2023-05-14T19:35:44.396Z,2.72
2023-05-14T19:38:29.346Z,2.33
2023-05-14T19:41:04.001Z,2.55
2023-05-14T19:43:33.777Z,2.50
2023-05-14T19:46:06.366Z,2.70
2023-05-14T19:48:36.169Z,2.25
2023-05-14T19:51:05.679Z,2.45
2023-05-14T19:53:35.470Z,3.00
2023-05-14T19:56:04.931Z,2.80
2023-05-14T19:58:34.431Z,2.20
2023-05-14T20:01:06.022Z,2.85
2023-05-14T20:06:10.496Z,2.40
2023-05-14T20:08:42.339Z,2.50
2023-05-14T20:11:22.130Z,2.78
2023-05-14T20:13:51.505Z,2.95
2023-05-14T20:16:47.141Z,2.05
2023-05-14T20:19:16.862Z,2.35
2023-05-14T20:24:50.673Z,2.58
2023-05-14T20:27:19.996Z,2.80
2023-05-14T20:29:56.373Z,2.35
2023-05-14T20:32:27.743Z,2.08
2023-05-14T20:35:12.182Z,1.65
2023-05-14T20:37:41.759Z,2.10
2023-05-14T20:40:12.714Z,2.47
2023-05-14T20:42:55.498Z,2.17
2023-05-14T20:45:25.066Z,1.90
2023-05-14T20:47:57.671Z,1.77
2023-05-14T20:50:28.037Z,1.90
2023-05-14T20:52:57.659Z,1.60
2023-05-14T20:55:27.424Z,2.80
2023-05-14T20:57:57.081Z,1.88
2023-05-14T21:00:26.504Z,1.95
2023-05-14T21:03:04.290Z,3.17
2023-05-14T21:05:34.637Z,1.50
2023-05-14T21:08:03.836Z,1.95
2023-05-14T21:10:33.250Z,1.80
2023-05-14T21:13:02.538Z,1.50
2023-05-14T21:15:37.071Z,1.88
2023-05-14T21:18:08.391Z,1.60
2023-05-14T21:20:37.785Z,2.10
2023-05-14T21:23:07.164Z,2.40
2023-05-14T21:25:36.946Z,2.00
2023-05-14T21:30:42.086Z,1.80
2023-05-14T21:33:13.496Z,2.72
2023-05-14T21:35:49.008Z,1.95
2023-05-14T21:38:18.823Z,2.20
2023-05-14T21:40:48.101Z,1.95
2023-05-14T21:43:18.073Z,2.10
2023-05-14T21:45:48.055Z,1.85
2023-05-14T21:48:19.430Z,2.13
2023-05-14T21:50:49.074Z,2.45
2023-05-14T21:53:18.514Z,2.75
2023-05-14T21:55:49.502Z,2.38
2023-05-14T21:58:24.253Z,2.35
2023-05-14T22:00:53.712Z,2.03
2023-05-14T22:03:25.189Z,2.47
2023-05-14T22:05:59.600Z,3.00
2023-05-14T22:08:30.776Z,2.67
2023-05-14T22:11:00.470Z,2.90
2023-05-14T22:13:29.735Z,2.58
2023-05-14T22:16:09.116Z,2.70
2023-05-14T22:18:43.850Z,2.83
2023-05-14T22:21:19.034Z,2.40
2023-05-14T22:23:50.138Z,2.78
2023-05-14T22:26:21.134Z,2.85
2023-05-14T22:28:57.263Z,2.80
2023-05-14T22:31:26.594Z,2.72
2023-05-14T22:33:57.876Z,2.85
2023-05-14T22:36:27.327Z,2.80
2023-05-14T22:38:56.612Z,2.65
2023-05-14T22:41:31.517Z,2.60
2023-05-14T22:44:00.721Z,2.95
2023-05-14T22:46:30.227Z,3.10
2023-05-14T22:49:03.791Z,3.25
2023-05-14T22:51:36.097Z,3.28
2023-05-14T22:54:10.890Z,3.75
2023-05-14T22:56:40.304Z,3.67
2023-05-14T22:59:09.801Z,3.75
2023-05-14T23:01:39.242Z,4.00
2023-05-14T23:06:46.034Z,4.53
2023-05-14T23:09:15.273Z,5.05
2023-05-14T23:11:44.735Z,5.75
2023-05-14T23:14:14.111Z,5.25
2023-05-14T23:16:43.597Z,4.80
2023-05-14T23:19:21.346Z,5.55
2023-05-14T23:21:50.790Z,5.18
2023-05-14T23:24:20.060Z,4.72
2023-05-14T23:32:07.124Z,5.55
2023-05-14T23:34:44.103Z,4.80
2023-05-14T23:37:13.721Z,5.15
2023-05-14T23:39:43.022Z,5.47
2023-05-14T23:42:12.406Z,5.30
2023-05-14T23:44:42.464Z,5.63
2023-05-14T23:47:12.070Z,5.50
2023-05-14T23:49:43.485Z,5.10
2023-05-14T23:52:13.225Z,5.15
2023-05-14T23:54:42.577Z,5.13
2023-05-14T23:57:14.516Z,5.32
2023-05-14T23:59:48.268Z,5.30
